Phoenix, AZ

1:30 AM MST on October 26, 2014 (GMT -0700)
Cheery Lynn Historical District | Change Station
CLOSE
Current Station
Personal Weather Station
Location: Phoenix, AZ
Elevation: 1125 ft
Nearby Weather Stations

Elev 1125 ft 33.49 °N, 112.05 °W | Updated 4 seconds ago

Clear
Clear
72.3 °F
Feels Like 76 °F
N
0.0
Wind Variable Wind from NW
Gusts 0.0 mph

Today
High -- | Low -- °F
--% Chance of Precip.
Yesterday
High -- | Low -- °F
Precip. -- in
6:41 AM 5:42 PM
Waxing Crescent, 6% visible
Pressure 29.85 in
Visibility 10.0 miles
Clouds Clear
Heat Index 76 °F
Dew Point 56 °F
Humidity 57%
Rainfall 0.00 in
Snow Depth Not available.
UV 0 out of 12
Pollen 5.40 out of 12
PM2.5 Moderate
Flu Activity No Activity
METAR KPHX 260751Z 08006KT 10SM CLR 25/13 A2990 RMK AO2 SLP106 T02500133

More Conditions Fewer Conditions

Pressure 29.85 in
Visibility 10.0 miles
Clouds Clear
Heat Index 76 °F
Dew Point 56 °F
Humidity 57%
Rainfall 0.00 in
Snow Depth Not available.
UV 0 out of 12
Pollen 5.40 out of 12
PM2.5 Moderate
Flu Activity No Activity
METAR KPHX 260751Z 08006KT 10SM CLR 25/13 A2990 RMK AO2 SLP106 T02500133

More Conditions Fewer Conditions

10-Day Weather Forecast

Almanac

Astronomy

Oct. 26, 2014 Rise Set
Actual Time 6:41 AM MST 5:42 PM MST
Civil Twilight 6:16 AM MST 6:07 PM MST
Nautical Twilight 5:47 AM MST 6:36 PM MST
Astronomical Twilight 5:18 AM MST 7:05 PM MST
Moon 9:18 AM MST 8:02 PM MST
Length of Visible Light 11h 51m
Length of Day
11h 00m
Tomorrow will be 1m 51s shorter.
Waxing Crescent, 6% of the Moon is Illuminated
Today
Waxing Crescent
Oct 30
First Quarter
Nov 6
Full
Nov 14
Last Quarter
Nov 22
New

Today's Extremes

State Highs State Lows

Community

WunderPhotos

Upload Photos

1,765,127 photos uploaded!

Nearby

Air Quality

  Air Quality AQ Index Pollutant
Yesterday Good
PM10
Yesterday Good
OZONE
Current Moderate
PM2.5
Sunday Good
PM2.5
Sunday Good
OZONE
Sunday Good
CO

Snow Depth

Station Depth Elevation
Workman Creek 1 in 6900 ft
Baker Butte 0 in 7300 ft
Promontory 0 in 7930 ft
Happy Jack 0 in 7630 ft
Mormon Mountain 0 in 7500 ft

Earthquake Activity

City Distance Mag. Time & Date
No recent earthquake activity has been reported nearby.
Minimum magnitude displayed is 2.5.

Coastal Water Temperatures

Place Temperature
No Stations Reporting

Nearby Weather Stations